createdAt,value
2019-05-10T00:00:10.701Z,12.76
2019-05-10T00:02:57.365Z,12.65
2019-05-10T00:05:44.124Z,12.89
2019-05-10T00:08:30.647Z,12.73
2019-05-10T00:11:01.288Z,12.80
2019-05-10T00:13:31.484Z,12.93
2019-05-10T00:16:00.230Z,12.80
2019-05-10T00:18:28.719Z,12.76
2019-05-10T00:20:57.256Z,12.75
2019-05-10T00:23:25.747Z,12.87
2019-05-10T00:25:54.283Z,12.88
2019-05-10T00:28:22.771Z,12.86
2019-05-10T00:30:51.240Z,12.82
2019-05-10T00:33:19.738Z,12.78
2019-05-10T00:35:48.278Z,12.68
2019-05-10T00:38:16.766Z,12.53
2019-05-10T00:40:45.239Z,12.50
2019-05-10T00:43:13.740Z,12.43
2019-05-10T00:45:42.195Z,12.30
2019-05-10T00:48:10.687Z,12.33
2019-05-10T00:50:39.150Z,12.33
2019-05-10T00:53:07.645Z,12.17
2019-05-10T00:55:36.112Z,12.25
2019-05-10T00:58:04.780Z,12.26
2019-05-10T01:00:33.245Z,12.26
2019-05-10T01:03:01.712Z,12.29
2019-05-10T01:05:30.212Z,12.22
2019-05-10T01:07:58.729Z,12.09
2019-05-10T01:10:27.236Z,12.03
2019-05-10T01:12:55.709Z,12.12
2019-05-10T01:15:24.270Z,11.94
2019-05-10T01:17:52.744Z,11.93
2019-05-10T01:20:21.302Z,11.99
2019-05-10T01:22:49.770Z,11.92
2019-05-10T01:25:33.636Z,11.88
2019-05-10T01:27:48.452Z,11.79
2019-05-10T01:30:18.077Z,11.86
2019-05-10T01:32:46.615Z,11.69
2019-05-10T01:35:15.181Z,11.61
2019-05-10T01:37:43.646Z,11.67
2019-05-10T01:40:12.194Z,11.76
2019-05-10T01:42:40.658Z,11.65
2019-05-10T01:45:09.393Z,11.69
2019-05-10T01:47:37.854Z,11.68
2019-05-10T01:50:07.381Z,11.62
2019-05-10T01:52:35.853Z,11.49
2019-05-10T01:55:06.579Z,11.47
2019-05-10T01:57:35.047Z,11.40
2019-05-10T02:00:05.214Z,11.34
2019-05-10T02:02:33.768Z,11.35
2019-05-10T02:05:02.432Z,11.44
2019-05-10T02:07:30.886Z,11.51
2019-05-10T02:09:59.385Z,11.69
2019-05-10T02:12:27.854Z,11.61
2019-05-10T02:14:56.344Z,11.76
2019-05-10T02:17:24.887Z,11.64
2019-05-10T02:19:53.380Z,11.75
2019-05-10T02:22:21.851Z,11.73
2019-05-10T02:24:50.348Z,11.59
2019-05-10T02:27:18.813Z,11.53
2019-05-10T02:29:47.375Z,11.60
2019-05-10T02:32:15.841Z,11.45
2019-05-10T02:34:44.338Z,11.59
2019-05-10T02:37:12.799Z,11.46
2019-05-10T02:39:41.300Z,11.26
2019-05-10T02:42:09.765Z,11.33
2019-05-10T02:44:38.259Z,11.19
2019-05-10T02:47:06.737Z,11.16
2019-05-10T02:49:35.223Z,11.43
2019-05-10T02:52:04.021Z,11.33
2019-05-10T02:54:32.563Z,11.33
2019-05-10T02:57:03.298Z,11.05
2019-05-10T02:59:33.301Z,11.08
2019-05-10T03:02:05.272Z,11.31
2019-05-10T03:04:36.321Z,11.50
2019-05-10T03:07:06.191Z,11.49
2019-05-10T03:09:35.346Z,11.51
2019-05-10T03:12:06.891Z,11.58
2019-05-10T03:14:40.508Z,11.57
2019-05-10T03:17:09.563Z,11.48
2019-05-10T03:19:38.555Z,11.41
2019-05-10T03:22:07.183Z,11.44
2019-05-10T03:24:35.652Z,11.48
2019-05-10T03:27:04.217Z,11.47
2019-05-10T03:29:32.924Z,11.48
2019-05-10T03:32:01.717Z,11.50
2019-05-10T03:34:30.334Z,11.29
2019-05-10T03:36:58.823Z,11.44
2019-05-10T03:39:27.655Z,11.56
2019-05-10T03:41:56.150Z,11.59
2019-05-10T03:44:24.625Z,11.62
2019-05-10T03:46:53.108Z,11.69
2019-05-10T03:49:21.576Z,11.44
2019-05-10T03:51:50.070Z,11.51
2019-05-10T03:54:18.535Z,11.32
2019-05-10T03:56:47.027Z,11.26
2019-05-10T03:59:15.493Z,11.57
2019-05-10T04:01:43.986Z,11.50
2019-05-10T04:04:12.450Z,11.13
2019-05-10T04:06:40.950Z,10.98
2019-05-10T04:09:09.487Z,11.04
2019-05-10T04:11:37.980Z,11.16
2019-05-10T04:14:06.441Z,11.22
2019-05-10T04:16:34.935Z,11.30
2019-05-10T04:19:03.401Z,11.42
2019-05-10T04:21:31.922Z,11.56
2019-05-10T04:24:00.367Z,11.57
2019-05-10T04:26:28.863Z,11.63
2019-05-10T04:28:57.329Z,11.62
2019-05-10T04:31:25.819Z,11.76
2019-05-10T04:33:54.287Z,11.80
2019-05-10T04:36:22.774Z,11.72
2019-05-10T04:38:51.251Z,11.72
2019-05-10T04:41:19.736Z,11.77
2019-05-10T04:43:48.198Z,11.68
2019-05-10T04:46:16.699Z,11.82
2019-05-10T04:48:45.167Z,11.78
2019-05-10T04:51:13.655Z,11.96
2019-05-10T04:53:42.123Z,12.01
2019-05-10T04:56:10.618Z,11.98
2019-05-10T04:58:39.161Z,11.92
2019-05-10T05:01:07.717Z,11.78
2019-05-10T05:03:36.187Z,11.78
2019-05-10T05:06:05.076Z,11.82
2019-05-10T05:08:33.559Z,11.86
2019-05-10T05:11:02.094Z,12.15
2019-05-10T05:13:30.590Z,12.05
2019-05-10T05:15:59.061Z,12.27
2019-05-10T05:18:27.548Z,12.39
2019-05-10T05:20:56.019Z,12.29
2019-05-10T05:23:24.519Z,12.32
2019-05-10T05:25:53.044Z,12.33
2019-05-10T05:28:23.136Z,12.27
2019-05-10T05:30:51.731Z,12.40
2019-05-10T05:33:20.227Z,12.46
2019-05-10T05:35:48.688Z,12.42
2019-05-10T05:38:17.184Z,12.48
2019-05-10T05:40:45.650Z,12.57
2019-05-10T05:43:14.149Z,12.56
2019-05-10T05:45:42.616Z,12.43
2019-05-10T05:48:11.105Z,12.32
2019-05-10T05:50:39.574Z,12.57
2019-05-10T05:53:08.064Z,12.69
2019-05-10T05:55:36.546Z,12.65
2019-05-10T05:58:07.121Z,12.52
2019-05-10T06:00:37.947Z,12.74
2019-05-10T06:03:05.442Z,12.74
2019-05-10T06:05:37.111Z,12.71
2019-05-10T06:08:04.213Z,12.75
2019-05-10T06:10:32.658Z,12.63
2019-05-10T06:13:01.217Z,12.53
2019-05-10T06:15:31.564Z,12.59
2019-05-10T06:18:03.602Z,12.69
2019-05-10T06:20:30.159Z,12.60
2019-05-10T06:23:06.602Z,12.66
2019-05-10T06:25:39.234Z,12.60
2019-05-10T06:27:59.052Z,12.47
2019-05-10T06:30:27.520Z,12.52
2019-05-10T06:33:00.698Z,12.55
2019-05-10T06:35:26.207Z,12.58
2019-05-10T06:37:54.697Z,12.72
2019-05-10T06:40:32.612Z,12.74
2019-05-10T06:42:53.389Z,12.63
2019-05-10T06:45:23.021Z,12.87
2019-05-10T06:47:53.419Z,13.00
2019-05-10T06:50:28.864Z,12.98
2019-05-10T06:52:52.514Z,12.92
2019-05-10T06:55:20.935Z,13.05
2019-05-10T06:57:50.414Z,13.14
2019-05-10T07:00:19.631Z,13.04
2019-05-10T07:02:48.099Z,12.91
2019-05-10T07:05:16.589Z,12.97
2019-05-10T07:07:45.662Z,13.17
2019-05-10T07:10:18.971Z,13.08
2019-05-10T07:12:45.453Z,13.08
2019-05-10T07:15:14.218Z,13.22
2019-05-10T07:17:46.962Z,13.21
2019-05-10T07:20:12.970Z,13.34
2019-05-10T07:22:41.436Z,13.39
2019-05-10T07:25:10.014Z,13.65
2019-05-10T07:27:38.884Z,13.42
2019-05-10T07:30:07.775Z,13.38
2019-05-10T07:32:36.270Z,13.50
2019-05-10T07:35:06.670Z,13.44
2019-05-10T07:37:35.579Z,13.24
2019-05-10T07:40:08.021Z,13.44
2019-05-10T07:42:39.718Z,13.67
2019-05-10T07:45:09.749Z,13.74
2019-05-10T07:47:38.221Z,13.64
2019-05-10T07:50:09.654Z,13.69
2019-05-10T07:52:43.667Z,13.82
2019-05-10T07:55:10.405Z,13.99
2019-05-10T07:57:38.238Z,13.90
2019-05-10T08:00:07.943Z,13.92
2019-05-10T08:02:36.468Z,14.11
2019-05-10T08:05:11.005Z,14.06
2019-05-10T08:07:38.691Z,13.93
2019-05-10T08:10:08.788Z,13.87
2019-05-10T08:12:41.404Z,14.05
2019-05-10T08:15:09.496Z,13.85
2019-05-10T08:17:43.287Z,13.77
2019-05-10T08:20:14.599Z,13.72
2019-05-10T08:22:41.322Z,13.63
2019-05-10T08:25:09.232Z,13.76
2019-05-10T08:27:43.932Z,13.97
2019-05-10T08:30:24.801Z,14.09
2019-05-10T08:32:38.698Z,14.35
2019-05-10T08:35:15.934Z,14.48
2019-05-10T08:37:38.179Z,14.34
2019-05-10T08:40:06.851Z,14.38
2019-05-10T08:42:44.208Z,14.31
2019-05-10T08:45:08.906Z,14.36
2019-05-10T08:47:37.323Z,14.50
2019-05-10T08:50:22.374Z,14.59
2019-05-10T08:52:36.329Z,14.90
2019-05-10T08:55:07.159Z,15.20
2019-05-10T08:57:43.422Z,15.58
2019-05-10T09:00:09.085Z,15.45
2019-05-10T09:02:37.676Z,15.16
2019-05-10T09:05:06.309Z,15.07
2019-05-10T09:07:38.850Z,14.96
2019-05-10T09:10:09.586Z,14.93
2019-05-10T09:12:44.218Z,15.12
2019-05-10T09:15:10.345Z,14.93
2019-05-10T09:17:37.725Z,15.05
2019-05-10T09:20:11.945Z,15.06
2019-05-10T09:22:38.870Z,14.81
2019-05-10T09:25:07.371Z,14.50
2019-05-10T09:27:35.834Z,14.49
2019-05-10T09:30:08.106Z,14.45
2019-05-10T09:32:35.240Z,14.15
2019-05-10T09:35:07.863Z,14.01
2019-05-10T09:37:34.803Z,14.06
2019-05-10T09:40:09.753Z,14.21
2019-05-10T09:42:39.981Z,14.48
2019-05-10T09:45:09.667Z,14.91
2019-05-10T09:47:37.164Z,15.51
2019-05-10T09:50:06.699Z,15.56
2019-05-10T09:52:35.164Z,16.02
2019-05-10T09:55:10.190Z,16.63
2019-05-10T09:57:34.629Z,16.77
2019-05-10T10:00:04.127Z,16.45
2019-05-10T10:02:33.860Z,16.36
2019-05-10T10:05:02.688Z,16.12
2019-05-10T10:07:33.464Z,16.18
2019-05-10T10:10:01.367Z,16.16
2019-05-10T10:12:29.877Z,17.05
2019-05-10T10:14:58.351Z,17.47
2019-05-10T10:17:27.498Z,18.81
2019-05-10T10:19:57.883Z,18.92
2019-05-10T10:22:27.831Z,17.94
2019-05-10T10:25:00.443Z,17.10
2019-05-10T10:27:34.336Z,16.49
2019-05-10T10:29:57.399Z,16.46
2019-05-10T10:32:31.345Z,17.03
2019-05-10T10:34:57.807Z,17.23
2019-05-10T10:37:28.990Z,17.49
2019-05-10T10:40:00.731Z,17.53
2019-05-10T10:42:26.845Z,17.67
2019-05-10T10:44:55.314Z,17.42
2019-05-10T10:47:30.458Z,17.11
2019-05-10T10:49:53.996Z,16.77
2019-05-10T10:52:22.492Z,16.56
2019-05-10T10:54:50.958Z,16.75
2019-05-10T10:57:19.444Z,18.66
2019-05-10T10:59:47.919Z,19.73
2019-05-10T11:02:32.029Z,18.70
2019-05-10T11:04:48.823Z,17.77
2019-05-10T11:07:16.812Z,17.20
2019-05-10T11:09:45.279Z,17.68
2019-05-10T11:12:14.618Z,20.39
2019-05-10T11:14:45.581Z,21.94
2019-05-10T11:17:14.162Z,20.04
2019-05-10T11:19:42.631Z,18.64
2019-05-10T11:22:11.121Z,17.99
2019-05-10T11:24:39.593Z,18.27
2019-05-10T11:27:12.993Z,20.45
2019-05-10T11:29:38.274Z,22.81
2019-05-10T11:32:15.890Z,23.40
2019-05-10T11:34:37.950Z,22.29
2019-05-10T11:37:07.500Z,21.52
2019-05-10T11:39:42.126Z,22.55
2019-05-10T11:42:07.319Z,21.02
2019-05-10T11:47:03.578Z,24.37
2019-05-10T11:49:32.051Z,23.03
2019-05-10T11:52:01.674Z,20.45
2019-05-10T11:54:31.913Z,19.12
2019-05-10T11:57:06.118Z,18.44
2019-05-10T11:59:33.770Z,18.05
2019-05-10T12:02:02.872Z,17.75
2019-05-10T12:04:38.850Z,17.55
2019-05-10T12:07:05.887Z,17.88
2019-05-10T12:09:31.864Z,18.12
2019-05-10T12:12:03.438Z,18.13
2019-05-10T12:14:30.504Z,18.27
2019-05-10T12:17:05.640Z,18.17
2019-05-10T12:19:36.680Z,19.79
2019-05-10T12:22:03.572Z,21.47
2019-05-10T12:24:45.312Z,21.29
2019-05-10T12:27:17.256Z,21.70
2019-05-10T12:29:31.655Z,23.10
2019-05-10T12:32:00.225Z,24.83
2019-05-10T12:34:30.987Z,24.91
2019-05-10T12:37:03.876Z,25.19
2019-05-10T12:39:30.998Z,25.61
2019-05-10T12:41:59.458Z,23.85
2019-05-10T12:44:27.951Z,22.98
2019-05-10T12:46:56.430Z,23.42
2019-05-10T12:49:24.919Z,22.95
2019-05-10T12:51:53.389Z,23.69
2019-05-10T12:54:23.945Z,23.99
2019-05-10T12:56:52.082Z,23.82
2019-05-10T12:59:20.577Z,23.87
2019-05-10T13:01:49.050Z,23.43
2019-05-10T13:04:18.331Z,22.76
2019-05-10T13:06:46.888Z,23.26
2019-05-10T13:09:15.386Z,24.05
2019-05-10T13:11:43.880Z,22.42
2019-05-10T13:14:13.299Z,20.79
2019-05-10T13:16:41.769Z,19.89
2019-05-10T13:19:14.194Z,19.14
2019-05-10T13:21:40.533Z,19.53
2019-05-10T13:24:09.089Z,19.75
2019-05-10T13:26:37.555Z,20.02
2019-05-10T13:29:07.841Z,19.37
2019-05-10T13:31:42.097Z,18.59
2019-05-10T13:34:06.450Z,19.84
2019-05-10T13:36:37.043Z,21.92
2019-05-10T13:39:06.078Z,23.68
2019-05-10T13:41:34.543Z,24.22
2019-05-10T13:44:04.879Z,25.80
2019-05-10T13:46:33.467Z,25.12
2019-05-10T13:49:02.003Z,24.80
2019-05-10T13:51:30.429Z,24.68
2019-05-10T13:54:00.871Z,26.27
2019-05-10T13:56:29.110Z,26.04
2019-05-10T13:58:57.702Z,26.29
2019-05-10T14:01:26.502Z,26.95
2019-05-10T14:04:01.217Z,26.78
2019-05-10T14:06:25.178Z,23.75
2019-05-10T14:08:53.680Z,25.09
2019-05-10T14:11:22.145Z,25.52
2019-05-10T14:13:50.711Z,26.19
2019-05-10T14:16:22.042Z,27.07
2019-05-10T14:18:49.368Z,26.14
2019-05-10T14:21:17.865Z,25.23
2019-05-10T14:23:46.336Z,25.93
2019-05-10T14:26:15.878Z,25.47
2019-05-10T14:28:47.252Z,25.43
2019-05-10T14:31:15.236Z,26.61
2019-05-10T14:33:49.713Z,25.92
2019-05-10T14:36:13.909Z,26.28
2019-05-10T14:38:47.254Z,25.74
2019-05-10T14:41:13.382Z,26.35
2019-05-10T14:43:41.975Z,24.99
2019-05-10T14:46:13.798Z,26.07
2019-05-10T14:48:40.683Z,27.24
2019-05-10T14:51:11.655Z,26.24
2019-05-10T14:53:39.359Z,26.58
2019-05-10T14:56:14.037Z,26.74
2019-05-10T14:58:38.039Z,27.25
2019-05-10T15:01:06.536Z,27.12
2019-05-10T15:03:44.383Z,26.73
2019-05-10T15:06:05.303Z,28.17
2019-05-10T15:08:33.777Z,27.70
2019-05-10T15:11:02.301Z,27.08
2019-05-10T15:13:34.573Z,26.07
2019-05-10T15:16:00.987Z,26.94
2019-05-10T15:18:29.465Z,27.62
2019-05-10T15:20:57.978Z,24.81
2019-05-10T15:23:26.445Z,24.54
2019-05-10T15:25:57.595Z,24.80
2019-05-10T15:28:25.145Z,24.93
2019-05-10T15:30:53.636Z,25.26
2019-05-10T15:33:22.116Z,24.73
2019-05-10T15:35:52.053Z,23.91
2019-05-10T15:38:20.835Z,24.85
2019-05-10T15:40:49.342Z,25.08
2019-05-10T15:43:18.959Z,24.98
2019-05-10T15:45:52.658Z,25.50
2019-05-10T15:48:17.795Z,25.78
2019-05-10T15:50:46.369Z,24.96
2019-05-10T15:53:19.345Z,24.67
2019-05-10T15:55:45.093Z,24.54
2019-05-10T15:58:13.593Z,24.46
2019-05-10T16:00:42.047Z,24.35
2019-05-10T16:03:10.550Z,23.59
2019-05-10T16:05:43.512Z,23.42
2019-05-10T16:08:09.249Z,24.16
2019-05-10T16:10:39.347Z,23.51
2019-05-10T16:13:07.949Z,23.31
2019-05-10T16:15:36.415Z,22.66
2019-05-10T16:18:05.143Z,22.93
2019-05-10T16:20:37.293Z,22.55
2019-05-10T16:23:08.582Z,23.82
2019-05-10T16:25:41.946Z,24.55
2019-05-10T16:28:04.376Z,25.74
2019-05-10T16:30:36.239Z,25.15
2019-05-10T16:33:03.091Z,25.13
2019-05-10T16:35:38.848Z,23.88
2019-05-10T16:38:01.787Z,22.49
2019-05-10T16:40:30.264Z,20.25
2019-05-10T16:42:58.767Z,19.98
2019-05-10T16:45:27.317Z,20.00
2019-05-10T16:47:55.811Z,20.68
2019-05-10T16:50:25.991Z,21.00
2019-05-10T16:52:59.319Z,20.66
2019-05-10T16:55:24.715Z,20.79
2019-05-10T16:57:53.218Z,21.64
2019-05-10T17:00:22.636Z,20.98
2019-05-10T17:02:51.143Z,20.87
2019-05-10T17:05:19.614Z,20.91
2019-05-10T17:07:48.109Z,20.86
2019-05-10T17:10:16.648Z,20.23
2019-05-10T17:12:45.155Z,19.89
2019-05-10T17:15:13.709Z,19.86
2019-05-10T17:17:44.878Z,20.29
2019-05-10T17:20:15.779Z,20.38
2019-05-10T17:22:42.971Z,19.99
2019-05-10T17:25:11.587Z,18.99
2019-05-10T17:27:40.092Z,18.06
2019-05-10T17:30:09.107Z,17.91
2019-05-10T17:32:37.613Z,17.36
2019-05-10T17:35:08.106Z,17.67
2019-05-10T17:37:37.493Z,18.28
2019-05-10T17:40:10.139Z,18.69
2019-05-10T17:42:41.254Z,17.99
2019-05-10T17:45:10.338Z,17.33
2019-05-10T17:47:38.916Z,16.75
2019-05-10T17:50:08.040Z,16.34
2019-05-10T17:52:36.539Z,16.03
2019-05-10T17:55:10.965Z,15.74
2019-05-10T17:57:38.505Z,15.58
2019-05-10T18:00:10.923Z,15.43
2019-05-10T18:02:39.432Z,15.10
2019-05-10T18:05:08.639Z,14.93
2019-05-10T18:07:37.346Z,14.74
2019-05-10T18:10:06.744Z,14.61
2019-05-10T18:12:35.846Z,14.53
2019-05-10T18:15:06.893Z,14.35
2019-05-10T18:17:36.981Z,14.29
2019-05-10T18:20:06.729Z,14.14
2019-05-10T18:22:43.704Z,14.07
2019-05-10T18:25:05.948Z,14.14
2019-05-10T18:27:34.417Z,13.90
2019-05-10T18:30:02.986Z,13.70
2019-05-10T18:32:35.700Z,13.76
2019-05-10T18:35:01.673Z,13.78
2019-05-10T18:37:30.147Z,13.68
2019-05-10T18:39:58.658Z,13.71
2019-05-10T18:42:27.943Z,13.62
2019-05-10T18:44:56.596Z,13.51
2019-05-10T18:47:25.074Z,13.51
2019-05-10T18:49:53.585Z,13.31
2019-05-10T18:52:22.049Z,13.03
2019-05-10T18:54:50.551Z,12.94
2019-05-10T18:57:19.653Z,12.73
2019-05-10T18:59:48.212Z,12.66
2019-05-10T19:02:17.879Z,12.48
2019-05-10T19:04:52.203Z,12.48
2019-05-10T19:07:17.478Z,12.47
2019-05-10T19:09:45.984Z,12.52
2019-05-10T19:12:18.861Z,12.47
2019-05-10T19:14:44.679Z,12.59
2019-05-10T19:17:13.180Z,12.57
2019-05-10T19:19:42.365Z,12.18
2019-05-10T19:22:11.011Z,12.13
2019-05-10T19:24:39.513Z,12.15
2019-05-10T19:27:09.379Z,12.03
2019-05-10T19:29:45.379Z,12.10
2019-05-10T19:32:11.327Z,12.16
2019-05-10T19:34:38.370Z,12.11
2019-05-10T19:37:06.906Z,12.07
2019-05-10T19:39:35.411Z,11.96
2019-05-10T19:42:06.171Z,11.96
2019-05-10T19:44:34.744Z,11.83
2019-05-10T19:47:04.501Z,11.78
2019-05-10T19:49:32.988Z,11.84
2019-05-10T19:52:01.461Z,11.83
2019-05-10T19:54:29.952Z,11.85
2019-05-10T19:56:58.426Z,11.93
2019-05-10T19:59:26.941Z,11.97
2019-05-10T20:01:55.407Z,11.96
2019-05-10T20:04:23.898Z,11.99
2019-05-10T20:06:52.387Z,12.05
2019-05-10T20:09:20.858Z,11.96
2019-05-10T20:11:49.365Z,11.93
2019-05-10T20:14:18.059Z,11.82
2019-05-10T20:16:52.665Z,11.76
2019-05-10T20:19:16.757Z,11.72
2019-05-10T20:21:45.331Z,11.70
2019-05-10T20:24:13.810Z,11.63
2019-05-10T20:26:42.324Z,11.44
2019-05-10T20:29:10.869Z,11.22
2019-05-10T20:31:39.363Z,11.07
2019-05-10T20:34:07.837Z,10.93
2019-05-10T20:36:36.331Z,10.86
2019-05-10T20:39:06.725Z,10.89
2019-05-10T20:41:35.259Z,10.84
2019-05-10T20:44:03.773Z,10.74
2019-05-10T20:46:32.276Z,10.62
2019-05-10T20:49:00.744Z,10.56
2019-05-10T20:51:29.242Z,10.49
2019-05-10T20:53:58.191Z,10.31
2019-05-10T20:56:26.689Z,10.21
2019-05-10T20:58:55.173Z,10.19
2019-05-10T21:01:23.666Z,9.97
2019-05-10T21:03:52.137Z,9.86
2019-05-10T21:06:20.628Z,9.70
2019-05-10T21:08:49.095Z,9.72
2019-05-10T21:11:17.681Z,9.33
2019-05-10T21:13:46.144Z,9.37
2019-05-10T21:16:14.641Z,9.41
2019-05-10T21:18:43.107Z,9.47
2019-05-10T21:21:11.592Z,9.40
2019-05-10T21:23:40.060Z,9.50
2019-05-10T21:26:08.558Z,9.38
2019-05-10T21:28:37.045Z,9.33
2019-05-10T21:31:05.531Z,9.28
2019-05-10T21:33:34.005Z,9.27
2019-05-10T21:36:02.580Z,9.21
2019-05-10T21:38:33.446Z,9.11
2019-05-10T21:41:01.286Z,9.14
2019-05-10T21:43:29.746Z,9.14
2019-05-10T21:45:58.242Z,9.14
2019-05-10T21:48:26.715Z,9.09
2019-05-10T21:50:55.226Z,8.95
2019-05-10T21:53:23.704Z,8.98
2019-05-10T21:55:52.204Z,9.08
2019-05-10T21:58:20.680Z,9.14
2019-05-10T22:00:52.375Z,9.19
2019-05-10T22:03:20.833Z,9.16
2019-05-10T22:05:49.393Z,9.04
2019-05-10T22:08:17.869Z,8.80
2019-05-10T22:10:46.336Z,8.70
2019-05-10T22:13:14.831Z,8.64
2019-05-10T22:15:43.375Z,8.63
2019-05-10T22:18:11.875Z,8.72
2019-05-10T22:20:40.320Z,8.85
2019-05-10T22:23:08.812Z,8.87
2019-05-10T22:25:37.282Z,8.87
2019-05-10T22:28:05.775Z,8.69
2019-05-10T22:30:34.248Z,8.67
2019-05-10T22:33:02.741Z,8.63
2019-05-10T22:35:31.278Z,8.44
2019-05-10T22:37:59.848Z,8.35
2019-05-10T22:40:28.319Z,8.32
2019-05-10T22:42:56.815Z,8.24
2019-05-10T22:45:25.284Z,8.11
2019-05-10T22:47:53.793Z,8.12
2019-05-10T22:50:22.263Z,8.00
2019-05-10T22:52:50.758Z,7.88
2019-05-10T22:55:19.228Z,7.91
2019-05-10T22:57:47.713Z,7.93
2019-05-10T23:00:16.516Z,7.82
2019-05-10T23:02:45.007Z,7.61
2019-05-10T23:05:13.553Z,7.72
2019-05-10T23:07:42.051Z,7.84
2019-05-10T23:10:11.163Z,7.86
2019-05-10T23:12:39.659Z,7.76
2019-05-10T23:15:08.205Z,7.77
2019-05-10T23:17:36.687Z,7.70
2019-05-10T23:20:05.492Z,7.61
2019-05-10T23:22:33.989Z,7.64
2019-05-10T23:25:02.465Z,7.35
2019-05-10T23:27:30.962Z,7.46
2019-05-10T23:29:59.439Z,7.35
2019-05-10T23:32:27.920Z,7.42
2019-05-10T23:34:56.385Z,7.47
2019-05-10T23:37:24.875Z,7.44
2019-05-10T23:39:53.346Z,7.50
2019-05-10T23:42:21.844Z,7.55
2019-05-10T23:44:50.316Z,7.51
2019-05-10T23:47:18.811Z,7.44
2019-05-10T23:49:47.292Z,7.43
2019-05-10T23:52:15.783Z,7.28
2019-05-10T23:54:44.258Z,7.20
2019-05-10T23:57:12.719Z,7.11
2019-05-10T23:59:41.222Z,7.06
